sensor_id;sensor_type;location;lat;lon;timestamp;pressure;altitude;pressure_sealevel;temperature;humidity
65997;BME280;52765;52.258;21.052;2023-08-24T00:02:02;100802.41;;;21.54;58.57
65997;BME280;52765;52.258;21.052;2023-08-24T00:04:28;100806.44;;;21.51;58.58
65997;BME280;52765;52.258;21.052;2023-08-24T00:06:53;100807.06;;;21.53;58.05
65997;BME280;52765;52.258;21.052;2023-08-24T00:09:19;100803.69;;;21.51;58.44
65997;BME280;52765;52.258;21.052;2023-08-24T00:11:45;100803.47;;;21.53;58.29
65997;BME280;52765;52.258;21.052;2023-08-24T00:14:10;100795.69;;;21.50;59.02
65997;BME280;52765;52.258;21.052;2023-08-24T00:16:37;100806.44;;;21.51;59.00
65997;BME280;52765;52.258;21.052;2023-08-24T00:19:02;100808.75;;;21.48;58.81
65997;BME280;52765;52.258;21.052;2023-08-24T00:21:28;100800.31;;;21.49;59.32
65997;BME280;52765;52.258;21.052;2023-08-24T00:23:54;100801.56;;;21.47;59.32
65997;BME280;52765;52.258;21.052;2023-08-24T00:26:20;100806.03;;;21.41;59.00
65997;BME280;52765;52.258;21.052;2023-08-24T00:28:46;100806.47;;;21.31;59.23
65997;BME280;52765;52.258;21.052;2023-08-24T00:31:12;100801.66;;;21.26;58.37
65997;BME280;52765;52.258;21.052;2023-08-24T00:33:37;100801.25;;;21.23;59.22
65997;BME280;52765;52.258;21.052;2023-08-24T00:36:04;100801.44;;;21.21;58.77
65997;BME280;52765;52.258;21.052;2023-08-24T00:38:30;100799.38;;;21.17;58.79
65997;BME280;52765;52.258;21.052;2023-08-24T00:40:56;100800.66;;;21.14;59.00
65997;BME280;52765;52.258;21.052;2023-08-24T00:43:21;100793.28;;;21.08;59.12
65997;BME280;52765;52.258;21.052;2023-08-24T00:45:52;100791.19;;;21.10;59.09
65997;BME280;52765;52.258;21.052;2023-08-24T00:48:20;100791.63;;;21.07;59.51
65997;BME280;52765;52.258;21.052;2023-08-24T00:50:46;100794.56;;;21.05;59.48
65997;BME280;52765;52.258;21.052;2023-08-24T00:53:12;100797.53;;;21.04;59.42
65997;BME280;52765;52.258;21.052;2023-08-24T00:55:38;100800.44;;;21.09;58.90
65997;BME280;52765;52.258;21.052;2023-08-24T00:58:03;100792.66;;;21.06;59.10
65997;BME280;52765;52.258;21.052;2023-08-24T01:00:29;100796.03;;;21.01;59.82
65997;BME280;52765;52.258;21.052;2023-08-24T01:02:54;100797.97;;;20.94;59.16
65997;BME280;52765;52.258;21.052;2023-08-24T01:05:20;100797.97;;;20.94;59.19
65997;BME280;52765;52.258;21.052;2023-08-24T01:07:46;100801.09;;;20.98;60.17
65997;BME280;52765;52.258;21.052;2023-08-24T01:10:11;100793.31;;;21.01;59.67
65997;BME280;52765;52.258;21.052;2023-08-24T01:15:19;100793.28;;;21.08;59.67
65997;BME280;52765;52.258;21.052;2023-08-24T01:17:50;100788.88;;;21.07;59.17
65997;BME280;52765;52.258;21.052;2023-08-24T01:20:17;100795.38;;;21.13;59.01
65997;BME280;52765;52.258;21.052;2023-08-24T01:25:37;100787.38;;;21.11;59.26
65997;BME280;52765;52.258;21.052;2023-08-24T01:28:05;100783.19;;;21.09;59.52
65997;BME280;52765;52.258;21.052;2023-08-24T01:30:33;100788.47;;;21.10;59.22
65997;BME280;52765;52.258;21.052;2023-08-24T01:33:02;100793.28;;;21.08;58.98
65997;BME280;52765;52.258;21.052;2023-08-24T01:35:28;100784.22;;;21.07;59.39
65997;BME280;52765;52.258;21.052;2023-08-24T01:37:53;100778.13;;;21.05;58.88
65997;BME280;52765;52.258;21.052;2023-08-24T01:40:39;100788.88;;;21.07;59.17
65997;BME280;52765;52.258;21.052;2023-08-24T01:43:07;100781.09;;;21.04;59.00
65997;BME280;52765;52.258;21.052;2023-08-24T01:45:35;100782.78;;;20.98;58.88
65997;BME280;52765;52.258;21.052;2023-08-24T01:48:02;100780.28;;;20.97;59.17
65997;BME280;52765;52.258;21.052;2023-08-24T01:50:29;100785.09;;;20.95;59.13
65997;BME280;52765;52.258;21.052;2023-08-24T01:52:55;100787.03;;;20.87;59.72
65997;BME280;52765;52.258;21.052;2023-08-24T01:55:21;100787.44;;;20.91;59.97
65997;BME280;52765;52.258;21.052;2023-08-24T01:57:47;100782.81;;;20.85;60.10
65997;BME280;52765;52.258;21.052;2023-08-24T02:00:13;100783.03;;;20.90;60.42
65997;BME280;52765;52.258;21.052;2023-08-24T02:02:39;100788.50;;;20.90;59.91
65997;BME280;52765;52.258;21.052;2023-08-24T02:05:04;100788.50;;;20.90;59.98
65997;BME280;52765;52.258;21.052;2023-08-24T02:07:30;100781.75;;;20.93;60.37
65997;BME280;52765;52.258;21.052;2023-08-24T02:09:56;100775.03;;;20.88;60.30
65997;BME280;52765;52.258;21.052;2023-08-24T02:12:21;100770.19;;;20.91;60.86
65997;BME280;52765;52.258;21.052;2023-08-24T02:14:47;100779.84;;;20.86;60.33
65997;BME280;52765;52.258;21.052;2023-08-24T02:17:12;100774.84;;;20.83;60.45
65997;BME280;52765;52.258;21.052;2023-08-24T02:19:39;100775.47;;;20.85;61.11
65997;BME280;52765;52.258;21.052;2023-08-24T02:22:06;100776.31;;;20.79;60.80
65997;BME280;52765;52.258;21.052;2023-08-24T02:24:32;100770.00;;;20.79;61.50
65997;BME280;52765;52.258;21.052;2023-08-24T02:26:57;100770.84;;;20.79;60.91
65997;BME280;52765;52.258;21.052;2023-08-24T02:29:23;100768.09;;;20.79;60.76
65997;BME280;52765;52.258;21.052;2023-08-24T02:31:51;100768.94;;;20.80;61.09
65997;BME280;52765;52.258;21.052;2023-08-24T02:34:17;100773.78;;;20.71;61.50
65997;BME280;52765;52.258;21.052;2023-08-24T02:36:42;100768.31;;;20.71;61.24
65997;BME280;52765;52.258;21.052;2023-08-24T02:39:08;100765.38;;;20.73;61.64
65997;BME280;52765;52.258;21.052;2023-08-24T02:41:34;100769.81;;;20.74;61.38
65997;BME280;52765;52.258;21.052;2023-08-24T02:44:00;100767.28;;;20.72;61.44
65997;BME280;52765;52.258;21.052;2023-08-24T02:46:25;100773.19;;;20.69;61.72
65997;BME280;52765;52.258;21.052;2023-08-24T02:48:51;100769.41;;;20.63;61.49
65997;BME280;52765;52.258;21.052;2023-08-24T02:51:16;100765.16;;;20.54;61.96
65997;BME280;52765;52.258;21.052;2023-08-24T02:53:42;100773.16;;;20.56;62.01
65997;BME280;52765;52.258;21.052;2023-08-24T02:56:07;100773.38;;;20.54;61.97
65997;BME280;52765;52.258;21.052;2023-08-24T02:58:32;100781.56;;;20.61;62.34
65997;BME280;52765;52.258;21.052;2023-08-24T03:00:58;100770.00;;;20.59;61.99
65997;BME280;52765;52.258;21.052;2023-08-24T03:03:25;100772.31;;;20.62;62.09
65997;BME280;52765;52.258;21.052;2023-08-24T03:05:57;100773.38;;;20.61;62.43
65997;BME280;52765;52.258;21.052;2023-08-24T03:08:23;100772.09;;;20.57;62.73
65997;BME280;52765;52.258;21.052;2023-08-24T03:10:49;100768.31;;;20.58;62.95
65997;BME280;52765;52.258;21.052;2023-08-24T03:13:14;100770.63;;;20.54;62.89
65997;BME280;52765;52.258;21.052;2023-08-24T03:15:40;100771.88;;;20.51;62.69
65997;BME280;52765;52.258;21.052;2023-08-24T03:18:05;100761.81;;;20.45;63.37
65997;BME280;52765;52.258;21.052;2023-08-24T03:20:31;100770.03;;;20.45;63.15
65997;BME280;52765;52.258;21.052;2023-08-24T03:22:56;100764.97;;;20.42;63.09
65997;BME280;52765;52.258;21.052;2023-08-24T03:25:22;100766.44;;;20.38;63.24
65997;BME280;52765;52.258;21.052;2023-08-24T03:27:48;100759.28;;;20.37;63.55
65997;BME280;52765;52.258;21.052;2023-08-24T03:30:14;100769.16;;;20.38;63.44
65997;BME280;52765;52.258;21.052;2023-08-24T03:32:40;100757.19;;;20.32;63.27
65997;BME280;52765;52.258;21.052;2023-08-24T03:35:06;100767.28;;;20.32;63.89
65997;BME280;52765;52.258;21.052;2023-08-24T03:37:32;100760.75;;;20.33;63.40
65997;BME280;52765;52.258;21.052;2023-08-24T03:39:57;100759.72;;;20.34;63.69
65997;BME280;52765;52.258;21.052;2023-08-24T03:42:23;100756.78;;;20.36;63.53
65997;BME280;52765;52.258;21.052;2023-08-24T03:44:48;100758.22;;;20.31;63.03
65997;BME280;52765;52.258;21.052;2023-08-24T03:47:14;100755.69;;;20.30;63.23
65997;BME280;52765;52.258;21.052;2023-08-24T03:49:44;100753.63;;;20.25;63.23
65997;BME280;52765;52.258;21.052;2023-08-24T03:52:09;100754.25;;;20.27;63.59
65997;BME280;52765;52.258;21.052;2023-08-24T03:54:35;100756.78;;;20.29;63.65
65997;BME280;52765;52.258;21.052;2023-08-24T03:57:01;100756.78;;;20.29;63.70
65997;BME280;52765;52.258;21.052;2023-08-24T03:59:27;100759.94;;;20.26;63.44
65997;BME280;52765;52.258;21.052;2023-08-24T04:01:52;100760.97;;;20.25;63.69
65997;BME280;52765;52.258;21.052;2023-08-24T04:04:18;100765.19;;;20.27;64.38
65997;BME280;52765;52.258;21.052;2023-08-24T04:06:43;100758.44;;;20.30;63.81
65997;BME280;52765;52.258;21.052;2023-08-24T04:09:09;100767.50;;;20.30;63.64
65997;BME280;52765;52.258;21.052;2023-08-24T04:11:35;100773.19;;;20.29;63.82
65997;BME280;52765;52.258;21.052;2023-08-24T04:14:00;100767.72;;;20.29;64.00
65997;BME280;52765;52.258;21.052;2023-08-24T04:16:26;100776.97;;;20.34;63.72
65997;BME280;52765;52.258;21.052;2023-08-24T04:18:51;100780.97;;;20.39;63.60
65997;BME280;52765;52.258;21.052;2023-08-24T04:21:17;100779.06;;;20.39;63.94
65997;BME280;52765;52.258;21.052;2023-08-24T04:23:42;100784.13;;;20.42;63.48
65997;BME280;52765;52.258;21.052;2023-08-24T04:26:11;100783.06;;;20.43;63.54
65997;BME280;52765;52.258;21.052;2023-08-24T04:28:36;100777.16;;;20.40;63.72
65997;BME280;52765;52.258;21.052;2023-08-24T04:31:03;100780.31;;;20.43;63.38
65997;BME280;52765;52.258;21.052;2023-08-24T04:33:28;100773.59;;;20.46;62.98
65997;BME280;52765;52.258;21.052;2023-08-24T04:35:54;100773.81;;;20.44;62.84
65997;BME280;52765;52.258;21.052;2023-08-24T04:38:19;100766.22;;;20.46;63.00
65997;BME280;52765;52.258;21.052;2023-08-24T04:43:11;100756.97;;;20.47;63.02
65997;BME280;52765;52.258;21.052;2023-08-24T04:45:37;100767.91;;;20.47;62.77
65997;BME280;52765;52.258;21.052;2023-08-24T04:48:02;100767.28;;;20.45;62.59
65997;BME280;52765;52.258;21.052;2023-08-24T04:50:28;100772.97;;;20.50;62.47
65997;BME280;52765;52.258;21.052;2023-08-24T04:52:53;100765.78;;;20.49;62.47
65997;BME280;52765;52.258;21.052;2023-08-24T04:55:19;100771.88;;;20.51;62.35
65997;BME280;52765;52.258;21.052;2023-08-24T04:57:44;100770.63;;;20.54;62.20
65997;BME280;52765;52.258;21.052;2023-08-24T05:00:10;100769.81;;;20.54;61.81
65997;BME280;52765;52.258;21.052;2023-08-24T05:02:41;100763.25;;;20.55;62.23
65997;BME280;52765;52.258;21.052;2023-08-24T05:05:07;100775.69;;;20.57;61.80
65997;BME280;52765;52.258;21.052;2023-08-24T05:07:35;100767.06;;;20.54;61.71
65997;BME280;52765;52.258;21.052;2023-08-24T05:10:00;100774.63;;;20.58;61.86
65997;BME280;52765;52.258;21.052;2023-08-24T05:12:26;100780.97;;;20.65;61.61
65997;BME280;52765;52.258;21.052;2023-08-24T05:14:54;100782.22;;;20.69;61.40
65997;BME280;52765;52.258;21.052;2023-08-24T05:17:23;100781.38;;;20.76;60.96
65997;BME280;52765;52.258;21.052;2023-08-24T05:19:55;100778.63;;;20.76;60.92
65997;BME280;52765;52.258;21.052;2023-08-24T05:22:23;100780.53;;;20.75;61.21
65997;BME280;52765;52.258;21.052;2023-08-24T05:24:52;100781.16;;;20.77;60.97
65997;BME280;52765;52.258;21.052;2023-08-24T05:27:21;100780.09;;;20.78;61.20
65997;BME280;52765;52.258;21.052;2023-08-24T05:29:49;100776.53;;;20.78;61.41
65997;BME280;52765;52.258;21.052;2023-08-24T05:32:18;100786.22;;;20.80;61.38
65997;BME280;52765;52.258;21.052;2023-08-24T05:34:47;100781.16;;;20.84;61.49
65997;BME280;52765;52.258;21.052;2023-08-24T05:37:16;100785.13;;;20.88;61.57
65997;BME280;52765;52.258;21.052;2023-08-24T05:39:46;100792.50;;;20.94;61.76
65997;BME280;52765;52.258;21.052;2023-08-24T05:42:14;100786.59;;;20.97;61.85
65997;BME280;52765;52.258;21.052;2023-08-24T05:44:43;100783.63;;;20.99;61.86
65997;BME280;52765;52.258;21.052;2023-08-24T05:47:11;100791.22;;;21.03;61.51
65997;BME280;52765;52.258;21.052;2023-08-24T05:49:38;100777.94;;;21.07;61.78
65997;BME280;52765;52.258;21.052;2023-08-24T05:52:03;100787.59;;;21.10;61.50
65997;BME280;52765;52.258;21.052;2023-08-24T05:54:29;100788.47;;;21.03;61.88
65997;BME280;52765;52.258;21.052;2023-08-24T05:56:54;100791.00;;;21.05;62.21
65997;BME280;52765;52.258;21.052;2023-08-24T05:59:20;100798.75;;;21.15;61.91
65997;BME280;52765;52.258;21.052;2023-08-24T06:01:46;100795.81;;;21.10;61.54
65997;BME280;52765;52.258;21.052;2023-08-24T06:04:12;100795.63;;;21.04;62.12
65997;BME280;52765;52.258;21.052;2023-08-24T06:06:37;100794.56;;;21.05;62.24
65997;BME280;52765;52.258;21.052;2023-08-24T06:09:03;100790.72;;;21.13;62.01
65997;BME280;52765;52.258;21.052;2023-08-24T06:11:32;100790.72;;;21.20;61.80
65997;BME280;52765;52.258;21.052;2023-08-24T06:13:58;100795.75;;;21.23;61.61
65997;BME280;52765;52.258;21.052;2023-08-24T06:16:24;100790.94;;;21.25;61.26
65997;BME280;52765;52.258;21.052;2023-08-24T06:18:50;100788.59;;;21.29;61.72
65997;BME280;52765;52.258;21.052;2023-08-24T06:21:18;100791.53;;;21.34;61.47
65997;BME280;52765;52.258;21.052;2023-08-24T06:23:44;100790.19;;;21.43;61.28
65997;BME280;52765;52.258;21.052;2023-08-24T06:26:12;100783.88;;;21.49;60.83
65997;BME280;52765;52.258;21.052;2023-08-24T06:28:37;100796.94;;;21.54;60.49
65997;BME280;52765;52.258;21.052;2023-08-24T06:31:03;100787.25;;;21.51;60.36
65997;BME280;52765;52.258;21.052;2023-08-24T06:33:34;100783.41;;;21.59;60.69
65997;BME280;52765;52.258;21.052;2023-08-24T06:36:01;100790.59;;;21.60;60.27
65997;BME280;52765;52.258;21.052;2023-08-24T06:38:27;100788.22;;;21.70;60.08
65997;BME280;52765;52.258;21.052;2023-08-24T06:40:53;100779.94;;;21.77;59.76
65997;BME280;52765;52.258;21.052;2023-08-24T06:43:20;100788.50;;;21.87;60.02
65997;BME280;52765;52.258;21.052;2023-08-24T06:45:47;100793.97;;;21.94;59.30
65997;BME280;52765;52.258;21.052;2023-08-24T06:48:12;100787.16;;;21.96;59.15
65997;BME280;52765;52.258;21.052;2023-08-24T06:50:38;100786.13;;;21.97;58.48
65997;BME280;52765;52.258;21.052;2023-08-24T06:53:04;100789.69;;;21.98;58.23
65997;BME280;52765;52.258;21.052;2023-08-24T06:55:30;100778.91;;;22.03;58.03
65997;BME280;52765;52.258;21.052;2023-08-24T06:57:55;100791.34;;;22.06;58.28
65997;BME280;52765;52.258;21.052;2023-08-24T07:00:21;100794.19;;;22.17;58.24
65997;BME280;52765;52.258;21.052;2023-08-24T07:02:47;100794.97;;;22.25;58.00
65997;BME280;52765;52.258;21.052;2023-08-24T07:05:13;100790.34;;;22.32;57.85
65997;BME280;52765;52.258;21.052;2023-08-24T07:07:39;100795.38;;;22.35;57.44
65997;BME280;52765;52.258;21.052;2023-08-24T07:10:06;100797.44;;;22.40;57.01
65997;BME280;52765;52.258;21.052;2023-08-24T07:12:32;100801.84;;;22.41;56.78
65997;BME280;52765;52.258;21.052;2023-08-24T07:14:57;100801.47;;;22.37;56.55
65997;BME280;52765;52.258;21.052;2023-08-24T07:17:23;100812.63;;;22.42;56.61
65997;BME280;52765;52.258;21.052;2023-08-24T07:19:48;100810.19;;;22.52;56.27
65997;BME280;52765;52.258;21.052;2023-08-24T07:22:15;100800.22;;;22.58;55.70
65997;BME280;52765;52.258;21.052;2023-08-24T07:24:40;100798.41;;;22.70;54.99
65997;BME280;52765;52.258;21.052;2023-08-24T07:27:07;100806.53;;;22.84;54.80
65997;BME280;52765;52.258;21.052;2023-08-24T07:29:33;100801.78;;;22.91;54.50
65997;BME280;52765;52.258;21.052;2023-08-24T07:31:59;100803.78;;;23.02;54.06
65997;BME280;52765;52.258;21.052;2023-08-24T07:34:24;100804.13;;;23.13;53.92
65997;BME280;52765;52.258;21.052;2023-08-24T07:36:50;100806.94;;;23.24;53.87
65997;BME280;52765;52.258;21.052;2023-08-24T07:39:15;100803.88;;;23.33;53.11
65997;BME280;52765;52.258;21.052;2023-08-24T07:41:41;100805.13;;;23.37;52.88
65997;BME280;52765;52.258;21.052;2023-08-24T07:44:07;100805.50;;;23.40;52.73
65997;BME280;52765;52.258;21.052;2023-08-24T07:46:33;100799.69;;;23.49;52.19
65997;BME280;52765;52.258;21.052;2023-08-24T07:48:58;100795.59;;;23.51;52.21
65997;BME280;52765;52.258;21.052;2023-08-24T07:51:24;100800.94;;;23.64;52.14
65997;BME280;52765;52.258;21.052;2023-08-24T07:53:49;100789.38;;;23.74;51.94
65997;BME280;52765;52.258;21.052;2023-08-24T07:56:17;100798.84;;;23.78;51.76
65997;BME280;52765;52.258;21.052;2023-08-24T07:58:43;100798.72;;;23.73;51.15
65997;BME280;52765;52.258;21.052;2023-08-24T08:01:08;100791.75;;;23.71;51.65
65997;BME280;52765;52.258;21.052;2023-08-24T08:03:34;100791.06;;;23.75;51.67
65997;BME280;52765;52.258;21.052;2023-08-24T08:06:01;100788.78;;;23.72;51.69
65997;BME280;52765;52.258;21.052;2023-08-24T08:08:26;100785.91;;;23.79;51.90
65997;BME280;52765;52.258;21.052;2023-08-24T08:10:59;100787.22;;;23.95;51.60
65997;BME280;52765;52.258;21.052;2023-08-24T08:13:26;100791.97;;;23.99;51.45
65997;BME280;52765;52.258;21.052;2023-08-24T08:15:51;100797.03;;;24.02;51.58
65997;BME280;52765;52.258;21.052;2023-08-24T08:18:17;100794.88;;;24.05;51.10
65997;BME280;52765;52.258;21.052;2023-08-24T08:20:42;100795.25;;;24.08;50.94
65997;BME280;52765;52.258;21.052;2023-08-24T08:23:08;100792.25;;;24.10;50.99
65997;BME280;52765;52.258;21.052;2023-08-24T08:25:33;100794.16;;;24.09;51.36
65997;BME280;52765;52.258;21.052;2023-08-24T08:27:59;100795.84;;;24.10;50.99
65997;BME280;52765;52.258;21.052;2023-08-24T08:30:24;100787.75;;;24.27;50.50
65997;BME280;52765;52.258;21.052;2023-08-24T08:32:49;100787.16;;;24.49;50.35
65997;BME280;52765;52.258;21.052;2023-08-24T08:35:17;100794.03;;;24.82;50.20
65997;BME280;52765;52.258;21.052;2023-08-24T08:37:42;100785.50;;;24.95;49.18
65997;BME280;52765;52.258;21.052;2023-08-24T08:40:10;100791.34;;;25.10;49.23
65997;BME280;52765;52.258;21.052;2023-08-24T08:42:36;100789.13;;;25.24;47.87
65997;BME280;52765;52.258;21.052;2023-08-24T08:45:04;100786.03;;;25.33;47.78
65997;BME280;52765;52.258;21.052;2023-08-24T08:47:33;100792.84;;;25.42;47.81
65997;BME280;52765;52.258;21.052;2023-08-24T08:49:59;100780.19;;;25.58;47.04
65997;BME280;52765;52.258;21.052;2023-08-24T08:52:27;100784.13;;;25.62;46.99
65997;BME280;52765;52.258;21.052;2023-08-24T08:54:56;100776.38;;;25.76;46.83
65997;BME280;52765;52.258;21.052;2023-08-24T08:57:24;100773.13;;;25.79;46.18
65997;BME280;52765;52.258;21.052;2023-08-24T08:59:51;100777.06;;;25.83;46.60
65997;BME280;52765;52.258;21.052;2023-08-24T09:02:20;100780.16;;;25.98;46.25
65997;BME280;52765;52.258;21.052;2023-08-24T09:04:49;100780.66;;;26.12;45.96
65997;BME280;52765;52.258;21.052;2023-08-24T09:07:16;100776.28;;;25.99;45.45
65997;BME280;52765;52.258;21.052;2023-08-24T09:09:42;100780.91;;;25.82;46.33
65997;BME280;52765;52.258;21.052;2023-08-24T09:12:08;100776.72;;;25.79;46.05
65997;BME280;52765;52.258;21.052;2023-08-24T09:14:33;100784.41;;;25.77;45.93
65997;BME280;52765;52.258;21.052;2023-08-24T09:16:59;100776.69;;;25.62;47.07
65997;BME280;52765;52.258;21.052;2023-08-24T09:19:29;100769.28;;;25.51;46.61
65997;BME280;52765;52.258;21.052;2023-08-24T09:21:57;100771.66;;;25.59;47.07
65997;BME280;52765;52.258;21.052;2023-08-24T09:24:34;100770.34;;;25.62;47.42
65997;BME280;52765;52.258;21.052;2023-08-24T09:27:05;100774.41;;;25.59;48.55
65997;BME280;52765;52.258;21.052;2023-08-24T09:29:39;100766.84;;;25.66;47.74
65997;BME280;52765;52.258;21.052;2023-08-24T09:32:08;100769.16;;;25.87;46.33
65997;BME280;52765;52.258;21.052;2023-08-24T09:34:33;100766.25;;;26.10;46.61
65997;BME280;52765;52.258;21.052;2023-08-24T09:36:59;100755.13;;;26.39;46.23
65997;BME280;52765;52.258;21.052;2023-08-24T09:39:24;100769.94;;;26.50;47.07
65997;BME280;52765;52.258;21.052;2023-08-24T09:41:50;100769.50;;;26.41;44.84
65997;BME280;52765;52.258;21.052;2023-08-24T09:44:18;100765.59;;;26.37;45.24
65997;BME280;52765;52.258;21.052;2023-08-24T09:46:44;100761.72;;;26.21;45.52
65997;BME280;52765;52.258;21.052;2023-08-24T09:49:10;100761.41;;;26.17;45.94
65997;BME280;52765;52.258;21.052;2023-08-24T09:51:38;100753.19;;;26.22;45.62
65997;BME280;52765;52.258;21.052;2023-08-24T09:54:10;100760.50;;;26.29;46.01
65997;BME280;52765;52.258;21.052;2023-08-24T09:56:36;100761.06;;;26.31;46.26
65997;BME280;52765;52.258;21.052;2023-08-24T09:59:13;100758.63;;;26.34;46.39
65997;BME280;52765;52.258;21.052;2023-08-24T10:01:45;100768.59;;;26.35;46.03
65997;BME280;52765;52.258;21.052;2023-08-24T10:04:17;100764.22;;;26.39;45.23
65997;BME280;52765;52.258;21.052;2023-08-24T10:06:49;100766.50;;;26.43;44.96
65997;BME280;52765;52.258;21.052;2023-08-24T10:09:21;100772.44;;;26.34;45.50
65997;BME280;52765;52.258;21.052;2023-08-24T10:11:53;100764.91;;;26.13;44.90
65997;BME280;52765;52.258;21.052;2023-08-24T10:14:26;100768.00;;;25.99;45.68
65997;BME280;52765;52.258;21.052;2023-08-24T10:16:54;100766.59;;;25.97;46.36
65997;BME280;52765;52.258;21.052;2023-08-24T10:19:21;100775.13;;;25.95;46.13
65997;BME280;52765;52.258;21.052;2023-08-24T10:21:48;100770.63;;;25.94;46.17
65997;BME280;52765;52.258;21.052;2023-08-24T10:24:16;100769.28;;;26.09;46.35
65997;BME280;52765;52.258;21.052;2023-08-24T10:26:42;100758.31;;;26.14;45.49
65997;BME280;52765;52.258;21.052;2023-08-24T10:29:08;100769.00;;;26.44;44.96
65997;BME280;52765;52.258;21.052;2023-08-24T10:31:35;100772.44;;;26.51;43.58
65997;BME280;52765;52.258;21.052;2023-08-24T10:34:02;100768.25;;;26.49;42.57
65997;BME280;52765;52.258;21.052;2023-08-24T10:36:28;100760.69;;;26.61;42.73
65997;BME280;52765;52.258;21.052;2023-08-24T10:38:57;100762.22;;;26.69;42.27
65997;BME280;52765;52.258;21.052;2023-08-24T10:41:46;100766.94;;;26.68;41.84
65997;BME280;52765;52.258;21.052;2023-08-24T10:44:20;100764.22;;;26.73;42.41
65997;BME280;52765;52.258;21.052;2023-08-24T10:47:15;100759.16;;;26.87;43.03
65997;BME280;52765;52.258;21.052;2023-08-24T10:49:56;100757.81;;;26.90;42.95
65997;BME280;52765;52.258;21.052;2023-08-24T10:52:24;100758.44;;;26.75;43.67
65997;BME280;52765;52.258;21.052;2023-08-24T10:54:51;100752.59;;;26.71;43.55
65997;BME280;52765;52.258;21.052;2023-08-24T10:57:37;100753.88;;;26.86;43.86
65997;BME280;52765;52.258;21.052;2023-08-24T11:00:08;100745.22;;;26.99;43.52
65997;BME280;52765;52.258;21.052;2023-08-24T11:05:27;100734.22;;;27.48;42.86
65997;BME280;52765;52.258;21.052;2023-08-24T11:08:03;100731.28;;;27.60;42.58
65997;BME280;52765;52.258;21.052;2023-08-24T11:10:44;100727.75;;;27.65;41.81
65997;BME280;52765;52.258;21.052;2023-08-24T11:15:47;100723.13;;;27.76;41.22
65997;BME280;52765;52.258;21.052;2023-08-24T11:21:10;100729.44;;;27.71;41.81
65997;BME280;52765;52.258;21.052;2023-08-24T11:23:37;100723.81;;;27.61;42.34
65997;BME280;52765;52.258;21.052;2023-08-24T11:26:04;100732.16;;;27.66;42.30
65997;BME280;52765;52.258;21.052;2023-08-24T11:28:30;100726.78;;;27.81;41.73
65997;BME280;52765;52.258;21.052;2023-08-24T11:30:57;100730.19;;;27.88;41.82
65997;BME280;52765;52.258;21.052;2023-08-24T11:33:33;100720.19;;;27.87;41.74
65997;BME280;52765;52.258;21.052;2023-08-24T11:36:00;100728.84;;;27.64;42.12
65997;BME280;52765;52.258;21.052;2023-08-24T11:38:36;100723.78;;;27.56;41.67
65997;BME280;52765;52.258;21.052;2023-08-24T11:41:10;100710.28;;;27.64;40.90
65997;BME280;52765;52.258;21.052;2023-08-24T11:43:37;100722.94;;;28.15;40.67
65997;BME280;52765;52.258;21.052;2023-08-24T11:46:03;100702.59;;;27.99;40.87
65997;BME280;52765;52.258;21.052;2023-08-24T11:48:29;100705.75;;;28.13;41.15
65997;BME280;52765;52.258;21.052;2023-08-24T11:50:59;100705.34;;;28.31;41.02
65997;BME280;52765;52.258;21.052;2023-08-24T11:53:25;100699.59;;;28.43;41.07
65997;BME280;52765;52.258;21.052;2023-08-24T11:55:55;100704.75;;;28.72;40.55
65997;BME280;52765;52.258;21.052;2023-08-24T11:58:20;100700.97;;;28.88;39.84
65997;BME280;52765;52.258;21.052;2023-08-24T12:00:46;100686.31;;;28.98;39.82
65997;BME280;52765;52.258;21.052;2023-08-24T12:03:13;100701.81;;;28.99;39.45
65997;BME280;52765;52.258;21.052;2023-08-24T12:05:39;100697.06;;;28.84;38.97
65997;BME280;52765;52.258;21.052;2023-08-24T12:08:05;100700.66;;;28.79;38.88
65997;BME280;52765;52.258;21.052;2023-08-24T12:10:31;100685.47;;;29.03;39.10
65997;BME280;52765;52.258;21.052;2023-08-24T12:13:06;100686.06;;;29.15;38.67
65997;BME280;52765;52.258;21.052;2023-08-24T12:15:35;100690.06;;;29.34;38.31
65997;BME280;52765;52.258;21.052;2023-08-24T12:20:34;100683.09;;;29.32;37.90
65997;BME280;52765;52.258;21.052;2023-08-24T12:22:59;100683.63;;;29.24;37.99
65997;BME280;52765;52.258;21.052;2023-08-24T12:25:28;100678.47;;;28.79;38.87
65997;BME280;52765;52.258;21.052;2023-08-24T12:28:11;100677.44;;;28.43;39.66
65997;BME280;52765;52.258;21.052;2023-08-24T12:30:47;100676.22;;;28.29;40.26
65997;BME280;52765;52.258;21.052;2023-08-24T12:33:26;100673.34;;;28.08;40.77
65997;BME280;52765;52.258;21.052;2023-08-24T12:35:53;100669.09;;;27.95;40.95
65997;BME280;52765;52.258;21.052;2023-08-24T12:38:19;100661.16;;;27.77;40.86
65997;BME280;52765;52.258;21.052;2023-08-24T12:40:45;100672.97;;;27.67;41.09
65997;BME280;52765;52.258;21.052;2023-08-24T12:43:10;100667.34;;;27.57;41.09
65997;BME280;52765;52.258;21.052;2023-08-24T12:45:36;100663.41;;;27.25;41.38
65997;BME280;52765;52.258;21.052;2023-08-24T12:48:03;100676.81;;;27.11;42.16
65997;BME280;52765;52.258;21.052;2023-08-24T12:50:29;100673.22;;;26.89;42.97
65997;BME280;52765;52.258;21.052;2023-08-24T12:52:54;100676.66;;;26.57;43.29
65997;BME280;52765;52.258;21.052;2023-08-24T12:55:23;100676.22;;;26.43;44.43
65997;BME280;52765;52.258;21.052;2023-08-24T12:57:48;100670.44;;;26.45;43.78
65997;BME280;52765;52.258;21.052;2023-08-24T13:00:14;100674.00;;;26.23;44.75